createdAt,value
2022-12-18T00:04:49.933Z,8.82
2022-12-18T00:09:52.024Z,8.81
2022-12-18T00:14:54.132Z,8.78
2022-12-18T00:19:56.119Z,8.68
2022-12-18T00:24:58.374Z,8.65
2022-12-18T00:30:00.672Z,8.71
2022-12-18T00:35:03.194Z,8.67
2022-12-18T00:40:07.302Z,8.63
2022-12-18T00:45:13.018Z,8.63
2022-12-18T00:50:15.409Z,8.69
2022-12-18T00:55:17.782Z,8.67
2022-12-18T01:00:21.218Z,8.62
2022-12-18T01:05:23.390Z,8.57
2022-12-18T01:10:25.943Z,8.50
2022-12-18T01:15:28.067Z,8.44
2022-12-18T01:20:30.241Z,8.42
2022-12-18T01:25:32.321Z,8.46
2022-12-18T01:30:34.619Z,8.49
2022-12-18T01:35:43.187Z,8.35
2022-12-18T01:40:45.375Z,8.36
2022-12-18T01:45:47.441Z,8.35
2022-12-18T01:50:51.427Z,8.30
2022-12-18T01:55:55.512Z,8.30
2022-12-18T02:00:57.653Z,8.37
2022-12-18T02:06:18.520Z,8.43
2022-12-18T02:11:38.514Z,8.42
2022-12-18T02:17:14.699Z,8.33
2022-12-18T02:22:46.108Z,8.33
2022-12-18T02:27:48.776Z,8.30
2022-12-18T02:32:54.188Z,8.27
2022-12-18T02:37:58.049Z,8.24
2022-12-18T02:43:09.048Z,8.12
2022-12-18T02:48:11.337Z,7.96
2022-12-18T02:53:35.564Z,7.93
2022-12-18T02:59:06.211Z,7.89
2022-12-18T03:04:19.957Z,7.98
2022-12-18T03:09:38.151Z,7.93
2022-12-18T03:14:42.046Z,7.91
2022-12-18T03:19:45.314Z,8.00
2022-12-18T03:24:48.521Z,7.90
2022-12-18T03:30:08.571Z,7.90
2022-12-18T03:35:14.918Z,7.98
2022-12-18T03:40:18.109Z,8.06
2022-12-18T03:45:22.204Z,8.01
2022-12-18T03:50:38.932Z,8.03
2022-12-18T03:55:43.114Z,7.95
2022-12-18T04:00:48.103Z,7.88
2022-12-18T04:05:51.929Z,7.81
2022-12-18T04:10:56.551Z,7.78
2022-12-18T04:15:59.448Z,7.77
2022-12-18T04:21:03.974Z,7.72
2022-12-18T04:26:06.273Z,7.73
2022-12-18T04:31:28.731Z,7.71
2022-12-18T04:36:31.738Z,7.64
2022-12-18T04:41:34.159Z,7.56
2022-12-18T04:46:37.012Z,7.60
2022-12-18T04:51:39.372Z,7.61
2022-12-18T04:56:41.415Z,7.57
2022-12-18T05:01:43.993Z,7.59
2022-12-18T05:06:46.833Z,7.62
2022-12-18T05:11:49.429Z,7.56
2022-12-18T05:16:51.578Z,7.48
2022-12-18T05:21:53.688Z,7.43
2022-12-18T05:26:56.013Z,7.30
2022-12-18T05:31:58.036Z,7.28
2022-12-18T05:37:00.589Z,7.18
2022-12-18T05:42:02.737Z,7.22
2022-12-18T05:47:05.558Z,7.24
2022-12-18T05:52:07.993Z,7.19
2022-12-18T05:57:10.265Z,7.16
2022-12-18T06:02:12.642Z,7.10
2022-12-18T06:07:14.861Z,7.01
2022-12-18T06:12:17.049Z,7.16
2022-12-18T06:17:19.458Z,7.26
2022-12-18T06:22:21.755Z,7.27
2022-12-18T06:27:23.714Z,7.33
2022-12-18T06:32:25.883Z,7.34
2022-12-18T06:37:28.130Z,7.29
2022-12-18T06:42:30.591Z,7.34
2022-12-18T06:47:32.711Z,7.29
2022-12-18T06:52:35.183Z,7.24
2022-12-18T06:57:37.857Z,7.25
2022-12-18T07:02:40.379Z,7.22
2022-12-18T07:07:42.533Z,7.18
2022-12-18T07:12:44.655Z,7.17
2022-12-18T07:17:46.640Z,7.18
2022-12-18T07:22:52.059Z,7.19
2022-12-18T07:27:58.599Z,7.21
2022-12-18T07:33:00.705Z,7.13
2022-12-18T07:38:02.722Z,7.19
2022-12-18T07:43:06.904Z,7.27
2022-12-18T07:48:09.100Z,7.38
2022-12-18T07:53:11.140Z,7.39
2022-12-18T07:58:13.199Z,7.45
2022-12-18T08:03:15.139Z,7.35
2022-12-18T08:08:17.268Z,7.45
2022-12-18T08:13:19.368Z,7.46
2022-12-18T08:18:21.680Z,7.60
2022-12-18T08:23:26.471Z,7.67
2022-12-18T08:28:32.110Z,7.68
2022-12-18T08:33:35.480Z,7.65
2022-12-18T08:38:41.020Z,7.68
2022-12-18T08:44:02.684Z,7.74
2022-12-18T08:49:05.485Z,7.67
2022-12-18T08:54:08.099Z,7.69
2022-12-18T08:59:15.824Z,7.72
2022-12-18T09:04:21.083Z,7.63
2022-12-18T09:09:23.251Z,7.70
2022-12-18T09:14:25.494Z,7.68
2022-12-18T09:19:27.601Z,7.66
2022-12-18T09:24:29.706Z,7.73
2022-12-18T09:29:31.815Z,7.75
2022-12-18T09:34:33.947Z,7.83
2022-12-18T09:39:36.029Z,7.96
2022-12-18T09:44:45.489Z,7.99
2022-12-18T09:49:51.482Z,8.08
2022-12-18T09:54:58.290Z,8.10
2022-12-18T10:00:19.178Z,8.08
2022-12-18T10:05:36.532Z,8.16
2022-12-18T10:10:44.448Z,8.15
2022-12-18T10:16:07.389Z,8.21
2022-12-18T10:21:17.319Z,8.11
2022-12-18T10:26:19.376Z,8.21
2022-12-18T10:31:24.827Z,8.37
2022-12-18T10:36:27.402Z,8.54
2022-12-18T10:41:29.738Z,8.56
2022-12-18T10:46:32.136Z,8.61
2022-12-18T10:51:37.426Z,8.71
2022-12-18T10:56:39.938Z,8.83
2022-12-18T11:01:58.861Z,8.89
2022-12-18T11:07:09.591Z,8.93
2022-12-18T11:12:11.598Z,9.06
2022-12-18T11:17:27.249Z,9.16
2022-12-18T11:22:31.532Z,9.33
2022-12-18T11:27:33.785Z,9.43
2022-12-18T11:32:38.972Z,9.47
2022-12-18T11:37:44.993Z,9.41
2022-12-18T11:42:56.624Z,9.46
2022-12-18T11:48:06.852Z,9.52
2022-12-18T11:53:12.291Z,9.57
2022-12-18T11:58:33.079Z,9.64
2022-12-18T12:03:50.749Z,9.64
2022-12-18T12:08:55.523Z,9.77
2022-12-18T12:14:00.395Z,9.95
2022-12-18T12:19:17.380Z,10.06
2022-12-18T12:24:38.269Z,9.98
2022-12-18T12:30:02.214Z,10.18
2022-12-18T12:35:15.635Z,10.26
2022-12-18T12:40:50.844Z,10.25
2022-12-18T12:46:06.117Z,10.22
2022-12-18T12:51:17.903Z,10.34
2022-12-18T12:56:22.339Z,10.41
2022-12-18T13:01:51.255Z,10.46
2022-12-18T13:07:00.258Z,10.58
2022-12-18T13:12:35.076Z,10.53
2022-12-18T13:17:37.314Z,10.47
2022-12-18T13:22:42.513Z,10.52
2022-12-18T13:27:44.360Z,10.55
2022-12-18T13:32:46.299Z,10.57
2022-12-18T13:37:56.113Z,10.71
2022-12-18T13:43:14.272Z,11.00
2022-12-18T13:48:24.349Z,11.00
2022-12-18T13:53:51.609Z,11.00
2022-12-18T13:59:16.743Z,10.75
2022-12-18T14:04:30.059Z,10.77
2022-12-18T14:09:36.610Z,10.65
2022-12-18T14:14:43.231Z,10.66
2022-12-18T14:19:50.410Z,10.63
2022-12-18T14:25:14.968Z,10.83
2022-12-18T14:30:27.210Z,10.98
2022-12-18T14:35:29.430Z,11.02
2022-12-18T14:40:32.984Z,11.01
2022-12-18T14:45:43.493Z,10.97
2022-12-18T14:50:46.940Z,10.94
2022-12-18T14:55:49.727Z,10.94
2022-12-18T15:00:52.046Z,10.87
2022-12-18T15:05:54.174Z,10.82
2022-12-18T15:10:58.765Z,10.73
2022-12-18T15:16:04.159Z,10.64
2022-12-18T15:21:11.206Z,10.57
2022-12-18T15:26:16.008Z,10.61
2022-12-18T15:31:18.436Z,10.55
2022-12-18T15:36:26.373Z,10.46
2022-12-18T15:41:29.131Z,10.45
2022-12-18T15:46:32.193Z,10.39
2022-12-18T15:51:36.397Z,10.28
2022-12-18T15:56:57.160Z,10.30
2022-12-18T16:02:00.454Z,10.20
2022-12-18T16:07:23.024Z,10.17
2022-12-18T16:12:26.534Z,10.16
2022-12-18T16:17:28.795Z,10.07
2022-12-18T16:22:31.394Z,10.08
2022-12-18T16:27:33.628Z,9.97
2022-12-18T16:32:35.667Z,9.94
2022-12-18T16:37:37.642Z,9.83
2022-12-18T16:42:41.346Z,9.79
2022-12-18T16:47:43.697Z,9.62
2022-12-18T16:52:45.935Z,9.52
2022-12-18T16:57:47.934Z,9.42
2022-12-18T17:02:50.070Z,9.40
2022-12-18T17:07:52.397Z,9.30
2022-12-18T17:12:54.314Z,9.18
2022-12-18T17:17:56.841Z,9.10
2022-12-18T17:22:59.038Z,9.12
2022-12-18T17:28:02.559Z,9.11
2022-12-18T17:33:04.608Z,9.09
2022-12-18T17:38:06.525Z,8.98
2022-12-18T17:43:09.304Z,8.88
2022-12-18T17:48:11.429Z,8.87
2022-12-18T17:53:13.503Z,8.86
2022-12-18T17:58:15.521Z,8.80
2022-12-18T18:03:17.841Z,8.76
2022-12-18T18:08:20.151Z,8.71
2022-12-18T18:13:47.093Z,8.64
2022-12-18T18:18:49.299Z,8.63
2022-12-18T18:23:51.379Z,8.61
2022-12-18T18:28:55.299Z,8.60
2022-12-18T18:33:58.232Z,8.54
2022-12-18T18:39:03.550Z,8.50
2022-12-18T18:44:05.923Z,8.46
2022-12-18T18:49:07.935Z,8.39
2022-12-18T18:54:10.556Z,8.29
2022-12-18T18:59:14.118Z,8.23
2022-12-18T19:04:16.164Z,8.19
2022-12-18T19:09:18.006Z,8.16
2022-12-18T19:14:20.422Z,8.12
2022-12-18T19:19:22.529Z,8.07
2022-12-18T19:24:27.024Z,8.03
2022-12-18T19:29:28.990Z,8.02
2022-12-18T19:34:31.084Z,8.03
2022-12-18T19:39:33.300Z,7.96
2022-12-18T19:44:35.358Z,7.93
2022-12-18T19:49:38.852Z,7.91
2022-12-18T19:54:40.909Z,7.86
2022-12-18T19:59:43.204Z,7.83
2022-12-18T20:04:46.405Z,7.80
2022-12-18T20:09:48.376Z,7.77
2022-12-18T20:14:52.345Z,7.76
2022-12-18T20:19:54.613Z,7.74
2022-12-18T20:24:56.961Z,7.68
2022-12-18T20:29:58.964Z,7.64
2022-12-18T20:35:00.919Z,7.59
2022-12-18T20:40:06.232Z,7.49
2022-12-18T20:45:09.887Z,7.42
2022-12-18T20:50:11.969Z,7.40
2022-12-18T20:55:14.448Z,7.33
2022-12-18T21:00:18.936Z,7.25
2022-12-18T21:05:23.295Z,7.26
2022-12-18T21:10:25.173Z,7.20
2022-12-18T21:15:28.871Z,7.13
2022-12-18T21:20:31.068Z,7.13
2022-12-18T21:25:33.234Z,7.07
2022-12-18T21:30:35.292Z,7.06
2022-12-18T21:35:37.560Z,7.02
2022-12-18T21:40:39.768Z,7.00
2022-12-18T21:45:41.873Z,7.02
2022-12-18T21:50:44.077Z,7.02
2022-12-18T21:55:45.982Z,7.02
2022-12-18T22:00:50.278Z,6.98
2022-12-18T22:05:57.077Z,6.94
2022-12-18T22:11:12.786Z,6.92
2022-12-18T22:16:14.867Z,6.89
2022-12-18T22:21:33.101Z,6.87
2022-12-18T22:26:40.099Z,6.83
2022-12-18T22:31:42.930Z,6.79
2022-12-18T22:36:47.382Z,6.83
2022-12-18T22:41:49.957Z,6.76
2022-12-18T22:47:06.614Z,6.76
2022-12-18T22:52:09.930Z,6.73
2022-12-18T22:57:11.959Z,6.74
2022-12-18T23:02:15.947Z,6.70
2022-12-18T23:07:18.558Z,6.70
2022-12-18T23:12:20.468Z,6.69
2022-12-18T23:17:23.661Z,6.66
2022-12-18T23:22:25.850Z,6.60
2022-12-18T23:27:27.914Z,6.57
2022-12-18T23:32:29.863Z,6.55
2022-12-18T23:37:58.455Z,6.56
2022-12-18T23:42:56.844Z,6.52
2022-12-18T23:47:58.775Z,6.48
2022-12-18T23:53:04.857Z,6.46
2022-12-18T23:58:09.377Z,6.40
